sensor_id;sensor_type;location;lat;lon;timestamp;temperature;humidity
48264;DHT22;34086;51.076;13.722;2023-05-23T00:00:43;18.70;99.90
48264;DHT22;34086;51.076;13.722;2023-05-23T00:01:44;18.70;99.90
48264;DHT22;34086;51.076;13.722;2023-05-23T00:02:45;18.70;99.90
48264;DHT22;34086;51.076;13.722;2023-05-23T00:03:46;18.70;99.90
48264;DHT22;34086;51.076;13.722;2023-05-23T00:04:48;18.70;99.90
48264;DHT22;34086;51.076;13.722;2023-05-23T00:05:49;18.70;99.90
48264;DHT22;34086;51.076;13.722;2023-05-23T00:06:50;18.70;99.90
48264;DHT22;34086;51.076;13.722;2023-05-23T00:07:51;18.70;99.90
48264;DHT22;34086;51.076;13.722;2023-05-23T00:08:51;18.80;99.90
48264;DHT22;34086;51.076;13.722;2023-05-23T00:09:52;18.80;99.90
48264;DHT22;34086;51.076;13.722;2023-05-23T00:10:53;18.80;99.90
48264;DHT22;34086;51.076;13.722;2023-05-23T00:11:53;18.80;99.90
48264;DHT22;34086;51.076;13.722;2023-05-23T00:12:54;18.80;99.90
48264;DHT22;34086;51.076;13.722;2023-05-23T00:13:55;18.80;99.90
48264;DHT22;34086;51.076;13.722;2023-05-23T00:15:00;18.80;99.90
48264;DHT22;34086;51.076;13.722;2023-05-23T00:16:02;18.80;99.90
48264;DHT22;34086;51.076;13.722;2023-05-23T00:17:02;18.70;99.90
48264;DHT22;34086;51.076;13.722;2023-05-23T00:18:04;18.80;99.90
48264;DHT22;34086;51.076;13.722;2023-05-23T00:19:05;18.80;99.90
48264;DHT22;34086;51.076;13.722;2023-05-23T00:20:06;18.70;99.90
48264;DHT22;34086;51.076;13.722;2023-05-23T00:21:08;18.70;99.90
48264;DHT22;34086;51.076;13.722;2023-05-23T00:22:09;18.70;99.90
48264;DHT22;34086;51.076;13.722;2023-05-23T00:23:11;18.60;99.90
48264;DHT22;34086;51.076;13.722;2023-05-23T00:24:18;18.60;99.90
48264;DHT22;34086;51.076;13.722;2023-05-23T00:25:19;18.50;99.90
48264;DHT22;34086;51.076;13.722;2023-05-23T00:26:21;18.40;99.90
48264;DHT22;34086;51.076;13.722;2023-05-23T00:27:23;18.30;99.90
48264;DHT22;34086;51.076;13.722;2023-05-23T00:28:24;18.20;99.90
48264;DHT22;34086;51.076;13.722;2023-05-23T00:29:25;18.10;99.90
48264;DHT22;34086;51.076;13.722;2023-05-23T00:30:27;18.00;99.90
48264;DHT22;34086;51.076;13.722;2023-05-23T00:31:28;17.90;99.90
48264;DHT22;34086;51.076;13.722;2023-05-23T00:32:28;17.90;99.90
48264;DHT22;34086;51.076;13.722;2023-05-23T00:33:30;17.90;99.90
48264;DHT22;34086;51.076;13.722;2023-05-23T00:34:32;17.80;99.90
48264;DHT22;34086;51.076;13.722;2023-05-23T00:35:33;17.80;99.90
48264;DHT22;34086;51.076;13.722;2023-05-23T00:36:34;17.70;99.90
48264;DHT22;34086;51.076;13.722;2023-05-23T00:37:37;17.70;99.90
48264;DHT22;34086;51.076;13.722;2023-05-23T00:38:37;17.70;99.90
48264;DHT22;34086;51.076;13.722;2023-05-23T00:39:39;17.70;99.90
48264;DHT22;34086;51.076;13.722;2023-05-23T00:40:40;17.70;99.90
48264;DHT22;34086;51.076;13.722;2023-05-23T00:41:41;17.70;99.90
48264;DHT22;34086;51.076;13.722;2023-05-23T00:42:41;17.60;99.90
48264;DHT22;34086;51.076;13.722;2023-05-23T00:43:42;17.50;99.90
48264;DHT22;34086;51.076;13.722;2023-05-23T00:44:42;17.50;99.90
48264;DHT22;34086;51.076;13.722;2023-05-23T00:45:43;17.50;99.90
48264;DHT22;34086;51.076;13.722;2023-05-23T00:46:44;17.40;99.90
48264;DHT22;34086;51.076;13.722;2023-05-23T00:47:47;17.40;99.90
48264;DHT22;34086;51.076;13.722;2023-05-23T00:48:49;17.40;99.90
48264;DHT22;34086;51.076;13.722;2023-05-23T00:49:51;17.30;99.90
48264;DHT22;34086;51.076;13.722;2023-05-23T00:50:52;17.40;99.90
48264;DHT22;34086;51.076;13.722;2023-05-23T00:51:53;17.30;99.90
48264;DHT22;34086;51.076;13.722;2023-05-23T00:52:54;17.30;99.90
48264;DHT22;34086;51.076;13.722;2023-05-23T00:53:55;17.30;99.90
48264;DHT22;34086;51.076;13.722;2023-05-23T00:54:56;17.30;99.90
48264;DHT22;34086;51.076;13.722;2023-05-23T00:55:57;17.20;99.90
48264;DHT22;34086;51.076;13.722;2023-05-23T00:56:58;17.20;99.90
48264;DHT22;34086;51.076;13.722;2023-05-23T00:57:59;17.20;99.90
48264;DHT22;34086;51.076;13.722;2023-05-23T00:59:00;17.10;99.90
48264;DHT22;34086;51.076;13.722;2023-05-23T01:00:01;17.10;99.90
48264;DHT22;34086;51.076;13.722;2023-05-23T01:01:01;17.10;99.90
48264;DHT22;34086;51.076;13.722;2023-05-23T01:02:02;17.10;99.90
48264;DHT22;34086;51.076;13.722;2023-05-23T01:03:03;17.10;99.90
48264;DHT22;34086;51.076;13.722;2023-05-23T01:04:04;17.10;99.90
48264;DHT22;34086;51.076;13.722;2023-05-23T01:05:06;17.00;99.90
48264;DHT22;34086;51.076;13.722;2023-05-23T01:06:07;17.00;99.90
48264;DHT22;34086;51.076;13.722;2023-05-23T01:07:08;17.00;99.90
48264;DHT22;34086;51.076;13.722;2023-05-23T01:08:09;17.00;99.90
48264;DHT22;34086;51.076;13.722;2023-05-23T01:09:10;16.90;99.90
48264;DHT22;34086;51.076;13.722;2023-05-23T01:10:12;16.90;99.90
48264;DHT22;34086;51.076;13.722;2023-05-23T01:11:22;16.80;99.90
48264;DHT22;34086;51.076;13.722;2023-05-23T01:12:34;16.80;99.90
48264;DHT22;34086;51.076;13.722;2023-05-23T01:13:51;16.70;99.90
48264;DHT22;34086;51.076;13.722;2023-05-23T01:15:07;16.60;99.90
48264;DHT22;34086;51.076;13.722;2023-05-23T01:16:40;16.50;99.90
48264;DHT22;34086;51.076;13.722;2023-05-23T01:18:03;16.40;99.90
48264;DHT22;34086;51.076;13.722;2023-05-23T01:19:16;16.40;99.90
48264;DHT22;34086;51.076;13.722;2023-05-23T01:20:27;16.30;99.90
48264;DHT22;34086;51.076;13.722;2023-05-23T01:21:29;16.30;99.90
48264;DHT22;34086;51.076;13.722;2023-05-23T01:22:48;16.30;99.90
48264;DHT22;34086;51.076;13.722;2023-05-23T01:24:35;16.30;99.90
48264;DHT22;34086;51.076;13.722;2023-05-23T01:28:22;16.30;99.90
48264;DHT22;34086;51.076;13.722;2023-05-23T01:29:41;16.20;99.90
48264;DHT22;34086;51.076;13.722;2023-05-23T01:30:44;16.20;99.90
48264;DHT22;34086;51.076;13.722;2023-05-23T01:31:48;16.20;99.90
48264;DHT22;34086;51.076;13.722;2023-05-23T01:32:53;16.10;99.90
48264;DHT22;34086;51.076;13.722;2023-05-23T01:33:55;16.20;99.90
48264;DHT22;34086;51.076;13.722;2023-05-23T01:34:56;16.10;99.90
48264;DHT22;34086;51.076;13.722;2023-05-23T01:36:00;16.10;99.90
48264;DHT22;34086;51.076;13.722;2023-05-23T01:37:07;16.10;99.90
48264;DHT22;34086;51.076;13.722;2023-05-23T01:38:10;16.00;99.90
48264;DHT22;34086;51.076;13.722;2023-05-23T01:39:10;16.00;99.90
48264;DHT22;34086;51.076;13.722;2023-05-23T01:40:11;16.00;99.90
48264;DHT22;34086;51.076;13.722;2023-05-23T01:41:12;16.00;99.90
48264;DHT22;34086;51.076;13.722;2023-05-23T01:42:13;16.10;99.90
48264;DHT22;34086;51.076;13.722;2023-05-23T01:43:14;16.10;99.90
48264;DHT22;34086;51.076;13.722;2023-05-23T01:44:15;16.10;99.90
48264;DHT22;34086;51.076;13.722;2023-05-23T01:45:16;16.20;99.90
48264;DHT22;34086;51.076;13.722;2023-05-23T01:46:17;16.10;99.90
48264;DHT22;34086;51.076;13.722;2023-05-23T01:47:18;16.20;99.90
48264;DHT22;34086;51.076;13.722;2023-05-23T01:48:20;16.20;99.90
48264;DHT22;34086;51.076;13.722;2023-05-23T01:49:22;16.20;99.90
48264;DHT22;34086;51.076;13.722;2023-05-23T01:50:23;16.20;99.90
48264;DHT22;34086;51.076;13.722;2023-05-23T01:51:24;16.20;99.90
48264;DHT22;34086;51.076;13.722;2023-05-23T01:52:26;16.20;99.90
48264;DHT22;34086;51.076;13.722;2023-05-23T01:53:28;16.20;99.90
48264;DHT22;34086;51.076;13.722;2023-05-23T01:54:30;16.20;99.90
48264;DHT22;34086;51.076;13.722;2023-05-23T01:55:31;16.20;99.90
48264;DHT22;34086;51.076;13.722;2023-05-23T01:56:32;16.20;99.90
48264;DHT22;34086;51.076;13.722;2023-05-23T01:57:38;16.20;99.90
48264;DHT22;34086;51.076;13.722;2023-05-23T01:58:38;16.10;99.90
48264;DHT22;34086;51.076;13.722;2023-05-23T01:59:39;16.10;99.90
48264;DHT22;34086;51.076;13.722;2023-05-23T02:00:40;16.10;99.90
48264;DHT22;34086;51.076;13.722;2023-05-23T02:01:42;16.10;99.90
48264;DHT22;34086;51.076;13.722;2023-05-23T02:02:42;16.00;99.90
48264;DHT22;34086;51.076;13.722;2023-05-23T02:03:44;16.00;99.90
48264;DHT22;34086;51.076;13.722;2023-05-23T02:04:44;16.00;99.90
48264;DHT22;34086;51.076;13.722;2023-05-23T02:05:45;15.90;99.90
48264;DHT22;34086;51.076;13.722;2023-05-23T02:06:45;15.90;99.90
48264;DHT22;34086;51.076;13.722;2023-05-23T02:07:47;15.90;99.90
48264;DHT22;34086;51.076;13.722;2023-05-23T02:08:47;15.90;99.90
48264;DHT22;34086;51.076;13.722;2023-05-23T02:09:48;15.80;99.90
48264;DHT22;34086;51.076;13.722;2023-05-23T02:10:49;15.80;99.90
48264;DHT22;34086;51.076;13.722;2023-05-23T02:11:50;15.80;99.90
48264;DHT22;34086;51.076;13.722;2023-05-23T02:12:50;15.80;99.90
48264;DHT22;34086;51.076;13.722;2023-05-23T02:13:51;15.80;99.90
48264;DHT22;34086;51.076;13.722;2023-05-23T02:14:53;15.80;99.90
48264;DHT22;34086;51.076;13.722;2023-05-23T02:15:54;15.80;99.90
48264;DHT22;34086;51.076;13.722;2023-05-23T02:16:55;15.80;99.90
48264;DHT22;34086;51.076;13.722;2023-05-23T02:17:56;15.80;99.90
48264;DHT22;34086;51.076;13.722;2023-05-23T02:18:56;15.80;99.90
48264;DHT22;34086;51.076;13.722;2023-05-23T02:19:57;15.80;99.90
48264;DHT22;34086;51.076;13.722;2023-05-23T02:20:57;15.80;99.90
48264;DHT22;34086;51.076;13.722;2023-05-23T02:21:58;15.80;99.90
48264;DHT22;34086;51.076;13.722;2023-05-23T02:22:58;15.80;99.90
48264;DHT22;34086;51.076;13.722;2023-05-23T02:23:59;15.80;99.90
48264;DHT22;34086;51.076;13.722;2023-05-23T02:24:59;15.70;99.90
48264;DHT22;34086;51.076;13.722;2023-05-23T02:26:00;15.70;99.90
48264;DHT22;34086;51.076;13.722;2023-05-23T02:27:00;15.70;99.90
48264;DHT22;34086;51.076;13.722;2023-05-23T02:28:01;15.60;99.90
48264;DHT22;34086;51.076;13.722;2023-05-23T02:29:02;15.60;99.90
48264;DHT22;34086;51.076;13.722;2023-05-23T02:30:03;15.60;99.90
48264;DHT22;34086;51.076;13.722;2023-05-23T02:31:03;15.60;99.90
48264;DHT22;34086;51.076;13.722;2023-05-23T02:32:04;15.60;99.90
48264;DHT22;34086;51.076;13.722;2023-05-23T02:33:06;15.60;99.90
48264;DHT22;34086;51.076;13.722;2023-05-23T02:34:07;15.60;99.90
48264;DHT22;34086;51.076;13.722;2023-05-23T02:35:07;15.60;99.90
48264;DHT22;34086;51.076;13.722;2023-05-23T02:36:09;15.50;99.90
48264;DHT22;34086;51.076;13.722;2023-05-23T02:37:10;15.60;99.90
48264;DHT22;34086;51.076;13.722;2023-05-23T02:38:12;15.60;99.90
48264;DHT22;34086;51.076;13.722;2023-05-23T02:39:14;15.60;99.90
48264;DHT22;34086;51.076;13.722;2023-05-23T02:40:16;15.60;99.90
48264;DHT22;34086;51.076;13.722;2023-05-23T02:41:17;15.60;99.90
48264;DHT22;34086;51.076;13.722;2023-05-23T02:42:18;15.60;99.90
48264;DHT22;34086;51.076;13.722;2023-05-23T02:43:19;15.60;99.90
48264;DHT22;34086;51.076;13.722;2023-05-23T02:44:20;15.60;99.90
48264;DHT22;34086;51.076;13.722;2023-05-23T02:45:20;15.60;99.90
48264;DHT22;34086;51.076;13.722;2023-05-23T02:46:21;15.60;99.90
48264;DHT22;34086;51.076;13.722;2023-05-23T02:47:22;15.60;99.90
48264;DHT22;34086;51.076;13.722;2023-05-23T02:48:22;15.60;99.90
48264;DHT22;34086;51.076;13.722;2023-05-23T02:49:24;15.60;99.90
48264;DHT22;34086;51.076;13.722;2023-05-23T02:50:25;15.60;99.90
48264;DHT22;34086;51.076;13.722;2023-05-23T02:51:25;15.60;99.90
48264;DHT22;34086;51.076;13.722;2023-05-23T02:52:26;15.60;99.90
48264;DHT22;34086;51.076;13.722;2023-05-23T02:53:27;15.60;99.90
48264;DHT22;34086;51.076;13.722;2023-05-23T02:54:28;15.60;99.90
48264;DHT22;34086;51.076;13.722;2023-05-23T02:55:28;15.60;99.90
48264;DHT22;34086;51.076;13.722;2023-05-23T02:56:31;15.60;99.90
48264;DHT22;34086;51.076;13.722;2023-05-23T02:57:31;15.60;99.90
48264;DHT22;34086;51.076;13.722;2023-05-23T02:58:32;15.60;99.90
48264;DHT22;34086;51.076;13.722;2023-05-23T02:59:35;15.60;99.90
48264;DHT22;34086;51.076;13.722;2023-05-23T03:00:35;15.60;99.90
48264;DHT22;34086;51.076;13.722;2023-05-23T03:01:36;15.50;99.90
48264;DHT22;34086;51.076;13.722;2023-05-23T03:02:37;15.60;99.90
48264;DHT22;34086;51.076;13.722;2023-05-23T03:03:37;15.50;99.90
48264;DHT22;34086;51.076;13.722;2023-05-23T03:04:39;15.60;99.90
48264;DHT22;34086;51.076;13.722;2023-05-23T03:05:39;15.50;99.90
48264;DHT22;34086;51.076;13.722;2023-05-23T03:06:41;15.60;99.90
48264;DHT22;34086;51.076;13.722;2023-05-23T03:07:43;15.60;99.90
48264;DHT22;34086;51.076;13.722;2023-05-23T03:08:44;15.60;99.90
48264;DHT22;34086;51.076;13.722;2023-05-23T03:09:44;15.60;99.90
48264;DHT22;34086;51.076;13.722;2023-05-23T03:10:45;15.60;99.90
48264;DHT22;34086;51.076;13.722;2023-05-23T03:11:45;15.60;99.90
48264;DHT22;34086;51.076;13.722;2023-05-23T03:12:46;15.60;99.90
48264;DHT22;34086;51.076;13.722;2023-05-23T03:13:48;15.60;99.90
48264;DHT22;34086;51.076;13.722;2023-05-23T03:14:49;15.60;99.90
48264;DHT22;34086;51.076;13.722;2023-05-23T03:15:50;15.60;99.90
48264;DHT22;34086;51.076;13.722;2023-05-23T03:16:51;15.60;99.90
48264;DHT22;34086;51.076;13.722;2023-05-23T03:17:51;15.60;99.90
48264;DHT22;34086;51.076;13.722;2023-05-23T03:18:52;15.60;99.90
48264;DHT22;34086;51.076;13.722;2023-05-23T03:19:52;15.60;99.90
48264;DHT22;34086;51.076;13.722;2023-05-23T03:20:53;15.60;99.90
48264;DHT22;34086;51.076;13.722;2023-05-23T03:21:56;15.60;99.90
48264;DHT22;34086;51.076;13.722;2023-05-23T03:22:57;15.60;99.90
48264;DHT22;34086;51.076;13.722;2023-05-23T03:23:57;15.60;99.90
48264;DHT22;34086;51.076;13.722;2023-05-23T03:24:58;15.60;99.90
48264;DHT22;34086;51.076;13.722;2023-05-23T03:25:58;15.60;99.90
48264;DHT22;34086;51.076;13.722;2023-05-23T03:27:01;15.60;99.90
48264;DHT22;34086;51.076;13.722;2023-05-23T03:28:02;15.60;99.90
48264;DHT22;34086;51.076;13.722;2023-05-23T03:29:03;15.60;99.90
48264;DHT22;34086;51.076;13.722;2023-05-23T03:30:05;15.60;99.90
48264;DHT22;34086;51.076;13.722;2023-05-23T03:31:06;15.60;99.90
48264;DHT22;34086;51.076;13.722;2023-05-23T03:32:06;15.60;99.90
48264;DHT22;34086;51.076;13.722;2023-05-23T03:33:07;15.50;99.90
48264;DHT22;34086;51.076;13.722;2023-05-23T03:34:08;15.50;99.90
48264;DHT22;34086;51.076;13.722;2023-05-23T03:35:10;15.50;99.90
48264;DHT22;34086;51.076;13.722;2023-05-23T03:36:11;15.50;99.90
48264;DHT22;34086;51.076;13.722;2023-05-23T03:37:11;15.50;99.90
48264;DHT22;34086;51.076;13.722;2023-05-23T03:38:12;15.60;99.90
48264;DHT22;34086;51.076;13.722;2023-05-23T03:39:13;15.60;99.90
48264;DHT22;34086;51.076;13.722;2023-05-23T03:40:13;15.50;99.90
48264;DHT22;34086;51.076;13.722;2023-05-23T03:41:14;15.60;99.90
48264;DHT22;34086;51.076;13.722;2023-05-23T03:42:14;15.50;99.90
48264;DHT22;34086;51.076;13.722;2023-05-23T03:43:15;15.60;99.90
48264;DHT22;34086;51.076;13.722;2023-05-23T03:44:17;15.50;99.90
48264;DHT22;34086;51.076;13.722;2023-05-23T03:45:18;15.60;99.90
48264;DHT22;34086;51.076;13.722;2023-05-23T03:46:18;15.50;99.90
48264;DHT22;34086;51.076;13.722;2023-05-23T03:47:19;15.50;99.90
48264;DHT22;34086;51.076;13.722;2023-05-23T03:48:21;15.50;99.90
48264;DHT22;34086;51.076;13.722;2023-05-23T03:49:22;15.60;99.90
48264;DHT22;34086;51.076;13.722;2023-05-23T03:50:23;15.60;99.90
48264;DHT22;34086;51.076;13.722;2023-05-23T03:51:23;15.50;99.90
48264;DHT22;34086;51.076;13.722;2023-05-23T03:52:24;15.60;99.90
48264;DHT22;34086;51.076;13.722;2023-05-23T03:53:24;15.60;99.90
48264;DHT22;34086;51.076;13.722;2023-05-23T03:54:25;15.60;99.90
48264;DHT22;34086;51.076;13.722;2023-05-23T03:55:26;15.60;99.90
48264;DHT22;34086;51.076;13.722;2023-05-23T03:56:26;15.60;99.90
48264;DHT22;34086;51.076;13.722;2023-05-23T03:57:27;15.60;99.90
48264;DHT22;34086;51.076;13.722;2023-05-23T03:58:27;15.60;99.90
48264;DHT22;34086;51.076;13.722;2023-05-23T03:59:33;15.60;99.90
48264;DHT22;34086;51.076;13.722;2023-05-23T04:00:39;15.60;99.90
48264;DHT22;34086;51.076;13.722;2023-05-23T04:01:41;15.60;99.90
48264;DHT22;34086;51.076;13.722;2023-05-23T04:02:42;15.60;99.90
48264;DHT22;34086;51.076;13.722;2023-05-23T04:03:44;15.60;99.90
48264;DHT22;34086;51.076;13.722;2023-05-23T04:04:46;15.60;99.90
48264;DHT22;34086;51.076;13.722;2023-05-23T04:05:46;15.60;99.90
48264;DHT22;34086;51.076;13.722;2023-05-23T04:06:47;15.60;99.90
48264;DHT22;34086;51.076;13.722;2023-05-23T04:07:48;15.60;99.90
48264;DHT22;34086;51.076;13.722;2023-05-23T04:08:49;15.60;99.90
48264;DHT22;34086;51.076;13.722;2023-05-23T04:09:49;15.60;99.90
48264;DHT22;34086;51.076;13.722;2023-05-23T04:10:51;15.60;99.90
48264;DHT22;34086;51.076;13.722;2023-05-23T04:11:52;15.60;99.90
48264;DHT22;34086;51.076;13.722;2023-05-23T04:12:53;15.60;99.90
48264;DHT22;34086;51.076;13.722;2023-05-23T04:13:54;15.60;99.90
48264;DHT22;34086;51.076;13.722;2023-05-23T04:14:55;15.70;99.90
48264;DHT22;34086;51.076;13.722;2023-05-23T04:15:55;15.70;99.90
48264;DHT22;34086;51.076;13.722;2023-05-23T04:16:56;15.70;99.90
48264;DHT22;34086;51.076;13.722;2023-05-23T04:17:57;15.80;99.90
48264;DHT22;34086;51.076;13.722;2023-05-23T04:18:58;15.80;99.90
48264;DHT22;34086;51.076;13.722;2023-05-23T04:19:59;15.80;99.90
48264;DHT22;34086;51.076;13.722;2023-05-23T04:21:00;15.80;99.90
48264;DHT22;34086;51.076;13.722;2023-05-23T04:22:01;15.80;99.90
48264;DHT22;34086;51.076;13.722;2023-05-23T04:23:02;15.80;99.90
48264;DHT22;34086;51.076;13.722;2023-05-23T04:24:05;15.90;99.90
48264;DHT22;34086;51.076;13.722;2023-05-23T04:25:06;15.90;99.90
48264;DHT22;34086;51.076;13.722;2023-05-23T04:26:12;15.90;99.90
48264;DHT22;34086;51.076;13.722;2023-05-23T04:27:18;15.90;99.90
48264;DHT22;34086;51.076;13.722;2023-05-23T04:28:19;15.90;99.90
48264;DHT22;34086;51.076;13.722;2023-05-23T04:29:20;16.00;99.90
48264;DHT22;34086;51.076;13.722;2023-05-23T04:30:21;16.00;99.90
48264;DHT22;34086;51.076;13.722;2023-05-23T04:31:23;16.00;99.90
48264;DHT22;34086;51.076;13.722;2023-05-23T04:32:23;16.00;99.90
48264;DHT22;34086;51.076;13.722;2023-05-23T04:33:24;16.00;99.90
48264;DHT22;34086;51.076;13.722;2023-05-23T04:34:25;16.00;99.90
48264;DHT22;34086;51.076;13.722;2023-05-23T04:35:27;16.00;99.90
48264;DHT22;34086;51.076;13.722;2023-05-23T04:36:28;16.00;99.90
48264;DHT22;34086;51.076;13.722;2023-05-23T04:37:29;16.10;99.90
48264;DHT22;34086;51.076;13.722;2023-05-23T04:38:32;16.10;99.90
48264;DHT22;34086;51.076;13.722;2023-05-23T04:39:33;16.00;99.90
48264;DHT22;34086;51.076;13.722;2023-05-23T04:40:54;16.00;99.90
48264;DHT22;34086;51.076;13.722;2023-05-23T04:42:16;16.00;99.90
48264;DHT22;34086;51.076;13.722;2023-05-23T04:43:43;16.00;99.90
48264;DHT22;34086;51.076;13.722;2023-05-23T04:44:58;16.00;99.90
48264;DHT22;34086;51.076;13.722;2023-05-23T04:46:18;16.00;99.90
48264;DHT22;34086;51.076;13.722;2023-05-23T04:47:26;16.00;99.90
48264;DHT22;34086;51.076;13.722;2023-05-23T04:48:40;16.00;99.90
48264;DHT22;34086;51.076;13.722;2023-05-23T04:49:42;16.10;99.90
48264;DHT22;34086;51.076;13.722;2023-05-23T04:50:43;16.10;99.90
48264;DHT22;34086;51.076;13.722;2023-05-23T04:51:47;16.10;99.90
48264;DHT22;34086;51.076;13.722;2023-05-23T04:53:08;16.10;99.90
48264;DHT22;34086;51.076;13.722;2023-05-23T04:54:10;16.10;99.90
48264;DHT22;34086;51.076;13.722;2023-05-23T04:55:11;16.10;99.90
48264;DHT22;34086;51.076;13.722;2023-05-23T04:56:12;16.10;99.90
48264;DHT22;34086;51.076;13.722;2023-05-23T04:57:13;16.00;99.90
48264;DHT22;34086;51.076;13.722;2023-05-23T04:58:15;16.10;99.90
48264;DHT22;34086;51.076;13.722;2023-05-23T04:59:16;16.00;99.90
48264;DHT22;34086;51.076;13.722;2023-05-23T05:00:17;16.10;99.90
48264;DHT22;34086;51.076;13.722;2023-05-23T05:01:18;16.10;99.90
48264;DHT22;34086;51.076;13.722;2023-05-23T05:02:19;16.10;99.90
48264;DHT22;34086;51.076;13.722;2023-05-23T05:03:20;16.10;99.90
48264;DHT22;34086;51.076;13.722;2023-05-23T05:04:22;16.10;99.90
48264;DHT22;34086;51.076;13.722;2023-05-23T05:05:24;16.20;99.90
48264;DHT22;34086;51.076;13.722;2023-05-23T05:06:24;16.20;99.90
48264;DHT22;34086;51.076;13.722;2023-05-23T05:07:26;16.20;99.90
48264;DHT22;34086;51.076;13.722;2023-05-23T05:08:28;16.20;99.90
48264;DHT22;34086;51.076;13.722;2023-05-23T05:09:29;16.20;99.90
48264;DHT22;34086;51.076;13.722;2023-05-23T05:10:30;16.20;99.90
48264;DHT22;34086;51.076;13.722;2023-05-23T05:11:31;16.20;99.90
48264;DHT22;34086;51.076;13.722;2023-05-23T05:12:32;16.20;99.90
48264;DHT22;34086;51.076;13.722;2023-05-23T05:13:34;16.20;99.90
48264;DHT22;34086;51.076;13.722;2023-05-23T05:14:36;16.30;99.90
48264;DHT22;34086;51.076;13.722;2023-05-23T05:15:36;16.30;99.90
48264;DHT22;34086;51.076;13.722;2023-05-23T05:16:37;16.30;99.90
48264;DHT22;34086;51.076;13.722;2023-05-23T05:17:38;16.30;99.90
48264;DHT22;34086;51.076;13.722;2023-05-23T05:18:42;16.30;99.90
48264;DHT22;34086;51.076;13.722;2023-05-23T05:19:42;16.30;99.90
48264;DHT22;34086;51.076;13.722;2023-05-23T05:20:43;16.30;99.90
48264;DHT22;34086;51.076;13.722;2023-05-23T05:21:44;16.30;99.90
48264;DHT22;34086;51.076;13.722;2023-05-23T05:22:45;16.40;99.90
48264;DHT22;34086;51.076;13.722;2023-05-23T05:23:46;16.40;99.90
48264;DHT22;34086;51.076;13.722;2023-05-23T05:24:50;16.30;99.90
48264;DHT22;34086;51.076;13.722;2023-05-23T05:25:52;16.30;99.90
48264;DHT22;34086;51.076;13.722;2023-05-23T05:26:53;16.40;99.90
48264;DHT22;34086;51.076;13.722;2023-05-23T05:27:55;16.30;99.90
48264;DHT22;34086;51.076;13.722;2023-05-23T05:28:56;16.40;99.90
48264;DHT22;34086;51.076;13.722;2023-05-23T05:29:57;16.50;99.90
48264;DHT22;34086;51.076;13.722;2023-05-23T05:31:04;16.50;99.90
48264;DHT22;34086;51.076;13.722;2023-05-23T05:32:08;16.60;99.90
48264;DHT22;34086;51.076;13.722;2023-05-23T05:33:09;16.60;99.90
48264;DHT22;34086;51.076;13.722;2023-05-23T05:34:10;16.60;99.90
48264;DHT22;34086;51.076;13.722;2023-05-23T05:35:11;16.70;99.90
48264;DHT22;34086;51.076;13.722;2023-05-23T05:36:14;16.60;99.90
48264;DHT22;34086;51.076;13.722;2023-05-23T05:37:15;16.70;99.90
48264;DHT22;34086;51.076;13.722;2023-05-23T05:38:18;16.80;99.90
48264;DHT22;34086;51.076;13.722;2023-05-23T05:39:22;16.80;99.90
48264;DHT22;34086;51.076;13.722;2023-05-23T05:40:23;16.80;99.90
48264;DHT22;34086;51.076;13.722;2023-05-23T05:41:24;16.80;99.90
48264;DHT22;34086;51.076;13.722;2023-05-23T05:42:27;16.70;99.90
48264;DHT22;34086;51.076;13.722;2023-05-23T05:43:27;16.80;99.90
48264;DHT22;34086;51.076;13.722;2023-05-23T05:44:28;16.80;99.90
48264;DHT22;34086;51.076;13.722;2023-05-23T05:45:29;16.70;99.90
48264;DHT22;34086;51.076;13.722;2023-05-23T05:46:29;16.80;99.90
48264;DHT22;34086;51.076;13.722;2023-05-23T05:47:30;16.80;99.90
48264;DHT22;34086;51.076;13.722;2023-05-23T05:48:31;16.80;99.90
48264;DHT22;34086;51.076;13.722;2023-05-23T05:49:35;16.90;99.90
48264;DHT22;34086;51.076;13.722;2023-05-23T05:50:36;16.90;99.90
48264;DHT22;34086;51.076;13.722;2023-05-23T05:51:37;16.90;99.90
48264;DHT22;34086;51.076;13.722;2023-05-23T05:52:37;17.00;99.90
48264;DHT22;34086;51.076;13.722;2023-05-23T05:53:39;17.00;99.90
48264;DHT22;34086;51.076;13.722;2023-05-23T05:54:40;17.00;99.90
48264;DHT22;34086;51.076;13.722;2023-05-23T05:55:41;17.10;99.90
48264;DHT22;34086;51.076;13.722;2023-05-23T05:56:41;17.10;99.90
48264;DHT22;34086;51.076;13.722;2023-05-23T05:57:43;17.10;99.90
48264;DHT22;34086;51.076;13.722;2023-05-23T05:58:43;17.20;99.90
48264;DHT22;34086;51.076;13.722;2023-05-23T05:59:47;17.30;99.90
48264;DHT22;34086;51.076;13.722;2023-05-23T06:00:49;17.50;99.90
48264;DHT22;34086;51.076;13.722;2023-05-23T06:01:50;17.70;99.90
48264;DHT22;34086;51.076;13.722;2023-05-23T06:02:51;17.90;99.90
48264;DHT22;34086;51.076;13.722;2023-05-23T06:04:03;17.90;99.90
48264;DHT22;34086;51.076;13.722;2023-05-23T06:05:05;18.00;99.90
48264;DHT22;34086;51.076;13.722;2023-05-23T06:06:07;18.10;99.90
48264;DHT22;34086;51.076;13.722;2023-05-23T06:07:08;18.10;99.90
48264;DHT22;34086;51.076;13.722;2023-05-23T06:08:08;18.10;99.90
48264;DHT22;34086;51.076;13.722;2023-05-23T06:09:09;18.00;99.90
48264;DHT22;34086;51.076;13.722;2023-05-23T06:10:10;18.00;99.90
48264;DHT22;34086;51.076;13.722;2023-05-23T06:11:14;18.00;99.90
48264;DHT22;34086;51.076;13.722;2023-05-23T06:12:15;18.10;99.90
48264;DHT22;34086;51.076;13.722;2023-05-23T06:13:16;18.10;99.90
48264;DHT22;34086;51.076;13.722;2023-05-23T06:14:20;18.10;99.90
48264;DHT22;34086;51.076;13.722;2023-05-23T06:15:21;18.10;99.90
48264;DHT22;34086;51.076;13.722;2023-05-23T06:16:21;18.20;99.90
48264;DHT22;34086;51.076;13.722;2023-05-23T06:17:22;18.20;99.90
48264;DHT22;34086;51.076;13.722;2023-05-23T06:18:24;18.20;99.90
48264;DHT22;34086;51.076;13.722;2023-05-23T06:19:25;18.20;99.90
48264;DHT22;34086;51.076;13.722;2023-05-23T06:20:30;18.30;99.90
48264;DHT22;34086;51.076;13.722;2023-05-23T06:21:33;18.40;99.90
48264;DHT22;34086;51.076;13.722;2023-05-23T06:22:33;18.40;99.90
48264;DHT22;34086;51.076;13.722;2023-05-23T06:23:34;18.40;99.90
48264;DHT22;34086;51.076;13.722;2023-05-23T06:24:35;18.40;99.90
48264;DHT22;34086;51.076;13.722;2023-05-23T06:25:36;18.40;99.90
48264;DHT22;34086;51.076;13.722;2023-05-23T06:26:37;18.50;99.90
48264;DHT22;34086;51.076;13.722;2023-05-23T06:27:38;18.50;99.90
48264;DHT22;34086;51.076;13.722;2023-05-23T06:28:38;18.50;99.90
48264;DHT22;34086;51.076;13.722;2023-05-23T06:29:40;18.50;99.90